createdAt,value
2022-12-13T00:01:48.077Z,19.98
2022-12-13T00:04:16.459Z,18.70
2022-12-13T00:06:44.237Z,19.35
2022-12-13T00:09:14.553Z,18.73
2022-12-13T00:11:42.401Z,19.13
2022-12-13T00:14:11.709Z,19.10
2022-12-13T00:16:39.096Z,17.92
2022-12-13T00:19:06.747Z,18.15
2022-12-13T00:21:34.431Z,17.25
2022-12-13T00:24:02.186Z,17.65
2022-12-13T00:26:31.746Z,18.17
2022-12-13T00:34:18.812Z,15.63
2022-12-13T00:36:46.721Z,15.47
2022-12-13T00:39:16.642Z,17.23
2022-12-13T00:41:44.916Z,18.58
2022-12-13T00:44:13.216Z,16.67
2022-12-13T00:46:41.421Z,17.48
2022-12-13T00:49:10.543Z,16.92
2022-12-13T00:51:38.673Z,17.30
2022-12-13T00:54:06.700Z,15.38
2022-12-13T00:56:34.517Z,16.25
2022-12-13T00:59:01.862Z,14.48
2022-12-13T01:01:32.404Z,14.65
2022-12-13T01:04:02.563Z,15.40
2022-12-13T01:06:36.317Z,14.80
2022-12-13T01:09:06.095Z,16.27
2022-12-13T01:11:33.765Z,14.55
2022-12-13T01:14:01.110Z,13.68
2022-12-13T01:16:28.589Z,15.38
2022-12-13T01:18:57.692Z,14.23
2022-12-13T01:21:24.994Z,13.70
2022-12-13T01:23:52.399Z,12.23
2022-12-13T01:26:21.855Z,12.68
2022-12-13T01:28:49.599Z,12.80
2022-12-13T01:31:19.594Z,13.07
2022-12-13T01:33:47.978Z,11.15
2022-12-13T01:36:18.164Z,11.40
2022-12-13T01:38:45.603Z,10.57
2022-12-13T01:41:20.880Z,10.85
2022-12-13T01:44:00.878Z,11.00
2022-12-13T01:46:28.907Z,9.93
2022-12-13T01:48:59.277Z,12.18
2022-12-13T01:51:37.320Z,11.75
2022-12-13T01:54:08.768Z,12.10
2022-12-13T01:56:47.271Z,12.68
2022-12-13T01:59:18.137Z,12.93
2022-12-13T02:01:50.547Z,12.18
2022-12-13T02:04:26.147Z,14.40
2022-12-13T02:06:55.945Z,24.83
2022-12-13T02:11:51.764Z,15.77
2022-12-13T02:14:19.089Z,15.38
2022-12-13T02:17:12.718Z,12.75
2022-12-13T02:19:58.047Z,11.88
2022-12-13T02:22:44.041Z,12.35
2022-12-13T02:25:28.596Z,11.60
2022-12-13T02:28:36.402Z,12.13
2022-12-13T02:31:21.573Z,12.23
2022-12-13T02:34:26.177Z,11.57
2022-12-13T02:37:01.944Z,11.07
2022-12-13T02:39:41.286Z,12.35
2022-12-13T02:42:22.305Z,11.50
2022-12-13T02:45:17.324Z,11.32
2022-12-13T02:47:52.259Z,9.57
2022-12-13T02:50:22.014Z,10.93
2022-12-13T02:52:51.504Z,12.10
2022-12-13T02:55:18.889Z,12.00
2022-12-13T02:57:48.093Z,11.55
2022-12-13T03:00:19.424Z,15.43
2022-12-13T03:03:10.565Z,13.35
2022-12-13T03:06:15.448Z,12.02
2022-12-13T03:09:08.183Z,13.20
2022-12-13T03:12:23.777Z,15.93
2022-12-13T03:15:10.806Z,12.93
2022-12-13T03:17:44.900Z,10.52
2022-12-13T03:20:22.958Z,11.50
2022-12-13T03:22:52.405Z,10.30
2022-12-13T03:25:30.879Z,12.25
2022-12-13T03:30:32.781Z,10.52
2022-12-13T03:33:00.641Z,11.93
2022-12-13T03:35:34.400Z,12.73
2022-12-13T03:38:21.984Z,12.35
2022-12-13T03:41:00.629Z,11.13
2022-12-13T03:43:28.942Z,12.73
2022-12-13T03:45:56.343Z,12.63
2022-12-13T03:48:24.319Z,12.07
2022-12-13T03:50:53.602Z,12.27
2022-12-13T03:53:32.779Z,12.85
2022-12-13T03:56:04.977Z,14.52
2022-12-13T03:58:36.043Z,13.00
2022-12-13T04:01:16.900Z,12.77
2022-12-13T04:03:47.170Z,12.75
2022-12-13T04:06:21.725Z,13.02
2022-12-13T04:08:52.441Z,13.90
2022-12-13T04:11:42.268Z,15.20
2022-12-13T04:14:22.706Z,14.00
2022-12-13T04:16:52.243Z,14.32
2022-12-13T04:19:23.757Z,15.00
2022-12-13T04:21:55.188Z,14.00
2022-12-13T04:24:31.874Z,15.45
2022-12-13T04:27:01.428Z,15.20
2022-12-13T04:29:34.322Z,14.27
2022-12-13T04:32:26.126Z,15.18
2022-12-13T04:35:01.163Z,12.45
2022-12-13T04:37:29.607Z,13.73
2022-12-13T04:40:00.723Z,13.60
2022-12-13T04:42:28.647Z,13.93
2022-12-13T04:44:56.003Z,13.57
2022-12-13T04:47:23.321Z,13.57
2022-12-13T04:49:50.665Z,12.88
2022-12-13T04:52:22.152Z,12.65
2022-12-13T04:54:55.868Z,13.25
2022-12-13T04:57:24.030Z,13.57
2022-12-13T04:59:52.311Z,15.65
2022-12-13T05:02:23.539Z,15.57
2022-12-13T05:04:53.838Z,15.88
2022-12-13T05:07:23.601Z,14.68
2022-12-13T05:09:50.884Z,16.73
2022-12-13T05:12:22.655Z,22.38
2022-12-13T05:14:54.000Z,23.02
2022-12-13T05:17:21.557Z,22.33
2022-12-13T05:19:48.882Z,19.33
2022-12-13T05:22:20.441Z,16.30
2022-12-13T05:24:48.927Z,15.73
2022-12-13T05:27:24.881Z,14.32
2022-12-13T05:30:03.737Z,15.63
2022-12-13T05:32:43.465Z,26.98
2022-12-13T05:35:14.457Z,22.65
2022-12-13T05:37:53.851Z,17.42
2022-12-13T05:40:32.322Z,16.50
2022-12-13T05:43:01.458Z,15.82
2022-12-13T05:45:33.088Z,16.42
2022-12-13T05:48:00.545Z,14.65
2022-12-13T05:50:27.868Z,16.45
2022-12-13T05:52:55.220Z,18.15
2022-12-13T05:55:22.519Z,19.73
2022-12-13T05:57:50.361Z,25.98
2022-12-13T06:00:30.022Z,17.70
2022-12-13T06:03:00.628Z,26.13
2022-12-13T06:05:30.390Z,21.35
2022-12-13T06:07:58.609Z,19.95
2022-12-13T06:10:34.921Z,90.57
2022-12-13T06:13:22.039Z,33.20
2022-12-13T06:15:52.371Z,26.70
2022-12-13T06:18:32.651Z,25.45
2022-12-13T06:21:04.136Z,20.48
2022-12-13T06:23:32.312Z,18.70
2022-12-13T06:26:02.184Z,19.02
2022-12-13T06:31:00.433Z,20.42
2022-12-13T06:33:28.425Z,24.38
2022-12-13T06:35:58.919Z,19.95
2022-12-13T06:38:31.153Z,20.50
2022-12-13T06:41:11.665Z,22.73
2022-12-13T06:43:43.071Z,20.13
2022-12-13T06:46:10.738Z,20.63
2022-12-13T06:48:40.525Z,22.35
2022-12-13T06:51:09.498Z,30.17
2022-12-13T06:53:40.333Z,27.40
2022-12-13T06:56:11.841Z,26.48
2022-12-13T06:58:40.207Z,29.70
2022-12-13T07:01:15.194Z,31.23
2022-12-13T07:03:54.646Z,62.83
2022-12-13T07:06:23.315Z,65.25
2022-12-13T07:08:53.617Z,81.90
2022-12-13T07:11:23.802Z,101.88
2022-12-13T07:13:51.989Z,103.72
2022-12-13T07:16:19.945Z,101.65
2022-12-13T07:18:48.277Z,101.35
2022-12-13T07:21:21.743Z,105.78
2022-12-13T07:23:59.329Z,96.03
2022-12-13T07:26:26.787Z,65.38
2022-12-13T07:28:55.593Z,72.65
2022-12-13T07:31:24.623Z,62.13
2022-12-13T07:33:52.462Z,53.20
2022-12-13T07:36:21.890Z,54.10
2022-12-13T07:38:57.185Z,53.40
2022-12-13T07:41:26.185Z,47.50
2022-12-13T07:43:56.190Z,48.55
2022-12-13T07:46:33.186Z,44.30
2022-12-13T07:49:02.778Z,39.70
2022-12-13T07:51:30.121Z,41.75
2022-12-13T07:53:57.721Z,36.13
2022-12-13T07:56:25.069Z,35.08
2022-12-13T07:58:52.354Z,35.70
2022-12-13T08:01:19.755Z,36.88
2022-12-13T08:03:50.274Z,33.72
2022-12-13T08:06:19.333Z,31.63
2022-12-13T08:08:46.884Z,33.33
2022-12-13T08:11:16.677Z,31.98
2022-12-13T08:13:44.214Z,22.38
2022-12-13T08:16:26.286Z,20.90
2022-12-13T08:19:02.527Z,25.38
2022-12-13T08:24:29.106Z,16.38
2022-12-13T08:27:01.446Z,12.98
2022-12-13T08:29:35.788Z,11.98
2022-12-13T08:32:06.889Z,11.45
2022-12-13T08:34:34.323Z,13.50
2022-12-13T08:37:03.532Z,14.75
2022-12-13T08:39:35.635Z,12.52
2022-12-13T08:42:16.352Z,11.90
2022-12-13T08:44:50.073Z,10.95
2022-12-13T08:47:23.082Z,11.38
2022-12-13T08:50:02.353Z,12.27
2022-12-13T08:52:40.170Z,12.38
2022-12-13T08:55:15.732Z,11.00
2022-12-13T08:57:43.814Z,9.60
2022-12-13T09:00:14.781Z,10.40
2022-12-13T09:02:42.664Z,11.45
2022-12-13T09:05:11.247Z,8.75
2022-12-13T09:07:43.013Z,10.02
2022-12-13T09:10:27.338Z,10.95
2022-12-13T09:13:01.717Z,11.10
2022-12-13T09:15:33.763Z,11.13
2022-12-13T09:18:04.908Z,11.10
2022-12-13T09:20:40.963Z,8.98
2022-12-13T09:23:14.044Z,8.20
2022-12-13T09:26:05.619Z,10.45
2022-12-13T09:28:37.000Z,10.95
2022-12-13T09:31:13.700Z,10.40
2022-12-13T09:33:42.023Z,10.00
2022-12-13T09:36:13.129Z,11.05
2022-12-13T09:38:40.571Z,9.65
2022-12-13T09:41:30.008Z,9.88
2022-12-13T09:44:32.545Z,11.50
2022-12-13T09:47:02.434Z,9.88
2022-12-13T09:49:41.598Z,10.40
2022-12-13T09:52:21.917Z,10.07
2022-12-13T09:54:55.801Z,10.25
2022-12-13T09:57:34.376Z,9.48
2022-12-13T10:00:06.099Z,10.30
2022-12-13T10:02:51.863Z,10.88
2022-12-13T10:05:39.198Z,10.18
2022-12-13T10:08:21.016Z,9.52
2022-12-13T10:10:50.293Z,10.25
2022-12-13T10:13:22.044Z,11.85
2022-12-13T10:16:02.468Z,12.25
2022-12-13T10:18:41.888Z,11.25
2022-12-13T10:21:18.276Z,10.95
2022-12-13T10:24:24.776Z,11.85
2022-12-13T10:26:38.048Z,11.35
2022-12-13T10:29:06.931Z,12.35
2022-12-13T10:31:46.636Z,13.00
2022-12-13T10:34:39.227Z,14.98
2022-12-13T10:37:29.889Z,14.55
2022-12-13T10:39:58.278Z,13.73
2022-12-13T10:42:32.192Z,13.23
2022-12-13T10:45:10.774Z,15.82
2022-12-13T10:47:38.011Z,18.20
2022-12-13T10:50:05.708Z,18.92
2022-12-13T10:52:44.766Z,16.13
2022-12-13T10:55:32.333Z,19.90
2022-12-13T10:58:03.662Z,23.90
2022-12-13T11:00:38.850Z,36.42
2022-12-13T11:03:07.336Z,29.45
2022-12-13T11:05:38.263Z,26.40
2022-12-13T11:08:16.104Z,32.17
2022-12-13T11:10:43.803Z,29.02
2022-12-13T11:13:25.522Z,31.23
2022-12-13T11:15:57.001Z,30.80
2022-12-13T11:18:27.269Z,23.40
2022-12-13T11:21:00.769Z,18.08
2022-12-13T11:23:46.794Z,19.73
2022-12-13T11:26:24.391Z,17.05
2022-12-13T11:29:18.710Z,18.83
2022-12-13T11:31:56.322Z,20.77
2022-12-13T11:34:42.118Z,19.25
2022-12-13T11:37:24.231Z,19.23
2022-12-13T11:40:01.257Z,23.58
2022-12-13T11:42:41.251Z,18.23
2022-12-13T11:45:22.879Z,20.52
2022-12-13T11:48:16.894Z,15.95
2022-12-13T11:50:47.569Z,15.55
2022-12-13T11:53:42.492Z,21.20
2022-12-13T11:56:28.723Z,21.58
2022-12-13T11:59:27.132Z,20.55
2022-12-13T12:02:50.380Z,20.08
2022-12-13T12:05:38.377Z,24.02
2022-12-13T12:08:37.733Z,21.55
2022-12-13T12:11:28.156Z,22.13
2022-12-13T12:14:21.705Z,22.35
2022-12-13T12:16:51.561Z,21.90
2022-12-13T12:19:22.792Z,21.45
2022-12-13T12:22:15.504Z,18.92
2022-12-13T12:24:57.521Z,19.67
2022-12-13T12:27:28.590Z,17.92
2022-12-13T12:30:04.274Z,17.88
2022-12-13T12:32:41.872Z,18.17
2022-12-13T12:35:55.197Z,15.30
2022-12-13T12:38:59.885Z,14.05
2022-12-13T12:41:27.178Z,11.63
2022-12-13T12:44:31.547Z,12.93
2022-12-13T12:50:09.095Z,13.32
2022-12-13T12:52:55.137Z,13.50
2022-12-13T12:55:53.784Z,14.15
2022-12-13T12:58:39.581Z,12.88
2022-12-13T13:01:23.307Z,12.50
2022-12-13T13:04:01.469Z,11.27
2022-12-13T13:06:35.166Z,11.93
2022-12-13T13:09:08.829Z,11.40
2022-12-13T13:11:43.106Z,11.57
2022-12-13T13:14:34.113Z,10.35
2022-12-13T13:17:23.892Z,9.98
2022-12-13T13:20:14.011Z,11.15
2022-12-13T13:22:44.368Z,12.93
2022-12-13T13:26:07.738Z,12.05
2022-12-13T13:28:28.425Z,10.73
2022-12-13T13:31:03.728Z,13.35
2022-12-13T13:33:51.130Z,25.10
2022-12-13T13:36:44.780Z,19.13
2022-12-13T13:39:39.721Z,23.88
2022-12-13T13:42:19.766Z,14.73
2022-12-13T13:44:49.827Z,11.73
2022-12-13T13:47:20.249Z,11.30
2022-12-13T13:50:02.904Z,12.50
2022-12-13T13:53:08.673Z,11.02
2022-12-13T13:56:14.018Z,14.07
2022-12-13T13:59:19.438Z,12.20
2022-12-13T14:02:29.438Z,14.68
2022-12-13T14:05:17.710Z,17.27
2022-12-13T14:08:20.603Z,15.23
2022-12-13T14:11:00.311Z,15.23
2022-12-13T14:13:46.400Z,16.90
2022-12-13T14:16:51.107Z,16.45
2022-12-13T14:19:27.541Z,22.00
2022-12-13T14:22:15.779Z,15.98
2022-12-13T14:24:55.836Z,24.42
2022-12-13T14:27:26.207Z,24.00
2022-12-13T14:29:58.320Z,27.58
2022-12-13T14:32:29.159Z,27.13
2022-12-13T14:34:57.751Z,29.50
2022-12-13T14:37:30.633Z,28.45
2022-12-13T14:39:59.772Z,24.92
2022-12-13T14:42:34.004Z,26.97
2022-12-13T14:45:35.141Z,28.77
2022-12-13T14:48:12.243Z,30.75
2022-12-13T14:50:43.848Z,28.02
2022-12-13T14:53:39.296Z,26.67
2022-12-13T14:56:27.533Z,24.83
2022-12-13T14:59:01.935Z,24.58
2022-12-13T15:01:37.745Z,25.60
2022-12-13T15:04:29.452Z,28.08
2022-12-13T15:07:02.900Z,31.55
2022-12-13T15:09:34.261Z,43.22
2022-12-13T15:12:23.449Z,39.38
2022-12-13T15:15:19.065Z,41.40
2022-12-13T15:17:46.426Z,45.40
2022-12-13T15:20:25.379Z,42.53
2022-12-13T15:23:04.511Z,75.72
2022-12-13T15:25:37.956Z,104.57
2022-12-13T15:28:06.168Z,97.35
2022-12-13T15:30:35.424Z,94.45
2022-12-13T15:33:30.841Z,103.70
2022-12-13T15:36:27.056Z,99.93
2022-12-13T15:38:57.049Z,93.60
2022-12-13T15:44:00.898Z,74.68
2022-12-13T15:46:38.189Z,70.50
2022-12-13T15:49:22.623Z,64.40
2022-12-13T15:52:02.134Z,61.00
2022-12-13T15:54:29.889Z,61.38
2022-12-13T15:57:16.885Z,58.72
2022-12-13T15:59:45.154Z,57.90
2022-12-13T16:02:21.409Z,56.33
2022-12-13T16:04:49.706Z,55.63
2022-12-13T16:07:31.986Z,54.10
2022-12-13T16:09:59.471Z,60.92
2022-12-13T16:12:38.623Z,69.35
2022-12-13T16:15:29.839Z,68.72
2022-12-13T16:18:16.359Z,65.10
2022-12-13T16:20:44.965Z,67.65
2022-12-13T16:23:26.533Z,75.55
2022-12-13T16:25:55.155Z,72.80
2022-12-13T16:28:26.235Z,86.90
2022-12-13T16:31:02.444Z,90.70
2022-12-13T16:33:29.915Z,99.57
2022-12-13T16:35:57.505Z,114.18
2022-12-13T16:38:27.487Z,109.85
2022-12-13T16:40:59.772Z,106.32
2022-12-13T16:43:33.872Z,101.95
2022-12-13T16:47:12.517Z,104.13
2022-12-13T16:48:52.246Z,96.70
2022-12-13T16:51:22.300Z,91.60
2022-12-13T16:53:49.673Z,84.35
2022-12-13T16:56:22.189Z,103.25
2022-12-13T16:58:50.634Z,73.15
2022-12-13T17:01:20.493Z,65.45
2022-12-13T17:03:48.642Z,68.70
2022-12-13T17:06:21.533Z,74.38
2022-12-13T17:08:48.970Z,44.75
2022-12-13T17:11:18.320Z,46.90
2022-12-13T17:13:48.221Z,42.08
2022-12-13T17:16:16.120Z,31.63
2022-12-13T17:18:43.533Z,30.92
2022-12-13T17:21:13.189Z,33.28
2022-12-13T17:23:40.743Z,31.55
2022-12-13T17:26:10.781Z,44.95
2022-12-13T17:28:38.338Z,57.08
2022-12-13T17:31:10.085Z,54.92
2022-12-13T17:33:38.076Z,55.42
2022-12-13T17:36:06.852Z,66.78
2022-12-13T17:38:34.879Z,65.95
2022-12-13T17:41:02.481Z,62.85
2022-12-13T17:43:34.725Z,61.15
2022-12-13T17:46:05.810Z,61.08
2022-12-13T17:48:40.015Z,58.22
2022-12-13T17:51:09.986Z,59.17
2022-12-13T17:53:40.273Z,68.78
2022-12-13T17:56:09.388Z,74.40
2022-12-13T17:58:38.534Z,75.28
2022-12-13T18:01:11.005Z,72.25
2022-12-13T18:03:38.534Z,67.35
2022-12-13T18:06:10.231Z,58.00
2022-12-13T18:08:39.518Z,57.70
2022-12-13T18:11:31.881Z,52.83
2022-12-13T18:13:55.745Z,53.42
2022-12-13T18:16:30.420Z,50.80
2022-12-13T18:19:05.989Z,54.20
2022-12-13T18:21:35.343Z,47.35
2022-12-13T18:24:02.914Z,49.33
2022-12-13T18:26:30.255Z,51.08
2022-12-13T18:28:57.596Z,53.80
2022-12-13T18:31:25.339Z,52.65
2022-12-13T18:33:54.021Z,49.58
2022-12-13T18:36:23.730Z,51.80
2022-12-13T18:38:53.869Z,58.20
2022-12-13T18:41:24.195Z,65.47
2022-12-13T18:43:59.512Z,65.32
2022-12-13T18:46:28.850Z,55.30
2022-12-13T18:48:57.334Z,48.97
2022-12-13T18:51:25.192Z,46.30
2022-12-13T18:53:53.482Z,48.95
2022-12-13T18:56:20.985Z,50.42
2022-12-13T18:58:49.351Z,51.55
2022-12-13T19:01:18.662Z,41.60
2022-12-13T19:03:47.918Z,43.80
2022-12-13T19:06:20.829Z,43.13
2022-12-13T19:08:49.593Z,44.53
2022-12-13T19:11:18.598Z,45.38
2022-12-13T19:13:46.452Z,45.33
2022-12-13T19:16:16.218Z,48.80
2022-12-13T19:18:43.581Z,46.83
2022-12-13T19:21:14.349Z,46.83
2022-12-13T19:23:42.717Z,49.25
2022-12-13T19:26:13.348Z,50.35
2022-12-13T19:28:41.990Z,50.88
2022-12-13T19:31:11.985Z,49.08
2022-12-13T19:33:42.076Z,48.08
2022-12-13T19:36:11.040Z,44.88
2022-12-13T19:38:39.726Z,41.20
2022-12-13T19:41:13.459Z,41.78
2022-12-13T19:43:41.562Z,41.72
2022-12-13T19:46:10.009Z,43.40
2022-12-13T19:48:40.049Z,44.17
2022-12-13T19:53:38.033Z,41.65
2022-12-13T19:56:11.668Z,43.15
2022-12-13T19:58:41.140Z,40.47
2022-12-13T20:01:08.682Z,41.15
2022-12-13T20:03:40.346Z,40.92
2022-12-13T20:06:10.088Z,36.08
2022-12-13T20:08:37.642Z,35.15
2022-12-13T20:11:11.701Z,35.28
2022-12-13T20:13:39.694Z,35.60
2022-12-13T20:16:07.573Z,35.47
2022-12-13T20:18:35.145Z,34.03
2022-12-13T20:21:13.017Z,32.83
2022-12-13T20:23:48.698Z,33.08
2022-12-13T20:26:20.436Z,31.77
2022-12-13T20:28:49.041Z,30.75
2022-12-13T20:31:22.587Z,32.85
2022-12-13T20:34:02.277Z,33.92
2022-12-13T20:36:31.541Z,35.45
2022-12-13T20:39:01.018Z,33.30
2022-12-13T20:41:30.329Z,32.08
2022-12-13T20:44:00.587Z,32.88
2022-12-13T20:46:29.131Z,35.40
2022-12-13T20:48:58.395Z,35.58
2022-12-13T20:51:27.734Z,36.40
2022-12-13T20:53:55.861Z,35.30
2022-12-13T20:56:25.857Z,35.13
2022-12-13T20:58:53.547Z,36.63
2022-12-13T21:01:20.819Z,39.50
2022-12-13T21:03:48.299Z,40.75
2022-12-13T21:06:15.782Z,38.88
2022-12-13T21:08:52.296Z,33.47
2022-12-13T21:11:25.452Z,34.42
2022-12-13T21:14:15.160Z,43.78
2022-12-13T21:16:53.261Z,36.63
2022-12-13T21:19:26.503Z,34.58
2022-12-13T21:21:54.906Z,35.20
2022-12-13T21:24:24.650Z,34.15
2022-12-13T21:26:52.684Z,32.50
2022-12-13T21:29:20.053Z,37.58
2022-12-13T21:31:50.094Z,36.40
2022-12-13T21:34:18.889Z,34.83
2022-12-13T21:36:54.818Z,33.95
2022-12-13T21:39:27.836Z,31.38
2022-12-13T21:41:58.511Z,32.30
2022-12-13T21:44:25.888Z,31.90
2022-12-13T21:47:12.869Z,32.78
2022-12-13T21:49:48.471Z,36.42
2022-12-13T21:52:17.062Z,36.60
2022-12-13T21:57:32.412Z,30.30
2022-12-13T21:59:59.825Z,32.53
2022-12-13T22:02:29.959Z,25.48
2022-12-13T22:04:58.474Z,24.70
2022-12-13T22:07:28.419Z,25.35
2022-12-13T22:12:32.632Z,25.73
2022-12-13T22:15:00.018Z,28.48
2022-12-13T22:17:35.705Z,31.35
2022-12-13T22:20:10.171Z,25.80
2022-12-13T22:22:39.126Z,23.33
2022-12-13T22:25:07.468Z,26.15
2022-12-13T22:27:35.001Z,25.67
2022-12-13T22:30:02.902Z,25.10
2022-12-13T22:32:32.279Z,26.67
2022-12-13T22:34:59.721Z,27.98
2022-12-13T22:37:27.484Z,25.77
2022-12-13T22:39:54.837Z,27.67
2022-12-13T22:42:22.434Z,28.38
2022-12-13T22:44:49.766Z,27.15
2022-12-13T22:47:19.123Z,27.70
2022-12-13T22:49:48.900Z,24.80
2022-12-13T22:52:17.094Z,26.08
2022-12-13T22:54:44.782Z,27.98
2022-12-13T22:57:12.282Z,26.40
2022-12-13T22:59:39.772Z,27.77
2022-12-13T23:02:07.780Z,23.83
2022-12-13T23:04:35.255Z,24.65
2022-12-13T23:07:02.561Z,23.77
2022-12-13T23:09:30.950Z,24.75
2022-12-13T23:12:17.121Z,23.35
2022-12-13T23:14:44.419Z,22.98
2022-12-13T23:17:11.905Z,21.23
2022-12-13T23:19:51.558Z,24.00
2022-12-13T23:22:23.623Z,22.92
2022-12-13T23:24:53.717Z,23.63
2022-12-13T23:27:23.266Z,23.90
2022-12-13T23:29:50.689Z,22.38
2022-12-13T23:32:18.372Z,25.08
2022-12-13T23:34:45.653Z,25.80
2022-12-13T23:37:13.796Z,25.05
2022-12-13T23:39:41.794Z,25.58
2022-12-13T23:42:09.275Z,25.45
2022-12-13T23:44:36.950Z,24.65
2022-12-13T23:47:04.238Z,22.70
2022-12-13T23:49:31.677Z,22.15
2022-12-13T23:51:59.161Z,20.60
2022-12-13T23:54:27.393Z,23.02
2022-12-13T23:56:54.667Z,20.27
2022-12-13T23:59:22.058Z,22.02
